Time;durP1;ratioP1;P1;durP2;ratioP2;P2;SDS_P1;SDS_P2;PMS_P1;PMS_P2;Temp;Humidity;BMP_temperature;BMP_pressure;BME280_temperature;BME280_humidity;BME280_pressure;Samples;Min_cycle;Max_cycle;Signal;HPM_P1;HPM_P2
2021/11/13 00:00:24;;;;;;;5.60;3.95;;;;;;;1.44;100.00;98796.44;5045968;28;20021;-72
2021/11/13 00:02:51;;;;;;;3.40;3.10;;;;;;;1.37;100.00;98794.63;5044965;28;20031;-73
2021/11/13 00:05:17;;;;;;;12.13;3.05;;;;;;;1.35;100.00;98791.16;5053443;28;20025;-72
2021/11/13 00:07:43;;;;;;;3.63;3.33;;;;;;;1.39;100.00;98792.94;5053299;28;20105;-72
2021/11/13 00:10:10;;;;;;;3.65;3.45;;;;;;;1.39;100.00;98785.28;5053099;28;20056;-72
2021/11/13 00:12:37;;;;;;;2.85;2.65;;;;;;;1.43;100.00;98794.75;5053268;28;20029;-72
2021/11/13 00:15:05;;;;;;;3.75;2.85;;;;;;;1.45;100.00;98787.97;5053055;28;20021;-73
2021/11/13 00:17:30;;;;;;;5.80;5.30;;;;;;;1.38;100.00;98786.13;5053092;28;20029;-72
2021/11/13 00:19:55;;;;;;;2.38;2.28;;;;;;;1.42;100.00;98790.47;5052146;28;20624;-72
2021/11/13 00:22:21;;;;;;;3.28;2.97;;;;;;;1.53;100.00;98786.41;5053057;28;20470;-72
2021/11/13 00:24:46;;;;;;;3.65;3.35;;;;;;;1.40;100.00;98784.47;5045783;28;20025;-72
2021/11/13 00:27:12;;;;;;;5.15;4.50;;;;;;;1.48;100.00;98788.88;5044647;28;20025;-72
2021/11/13 00:29:37;;;;;;;2.85;2.65;;;;;;;1.47;100.00;98782.06;5045274;28;20025;-72
2021/11/13 00:32:03;;;;;;;2.85;2.65;;;;;;;1.50;100.00;98786.38;5044536;28;20140;-72
2021/11/13 00:34:29;;;;;;;3.92;2.78;;;;;;;1.46;100.00;98789.69;5052665;28;20033;-72
2021/11/13 00:36:54;;;;;;;3.25;3.00;;;;;;;1.55;100.00;98805.19;5052699;28;20028;-72
2021/11/13 00:39:20;;;;;;;3.25;3.05;;;;;;;1.53;100.00;98799.19;5052655;28;20104;-72
2021/11/13 00:41:46;;;;;;;3.25;3.05;;;;;;;1.67;100.00;98804.53;5052526;28;20047;-72
2021/11/13 00:44:11;;;;;;;4.57;4.18;;;;;;;1.72;100.00;98814.00;5052556;28;20453;-72
2021/11/13 00:46:37;;;;;;;7.60;3.13;;;;;;;1.67;100.00;98815.59;5052515;28;20481;-73
2021/11/13 00:49:05;;;;;;;3.88;3.50;;;;;;;1.76;100.00;98818.31;5052544;28;20036;-72
2021/11/13 00:51:31;;;;;;;3.22;2.92;;;;;;;1.73;100.00;98814.84;5052513;28;20021;-72
2021/11/13 00:53:56;;;;;;;4.38;3.05;;;;;;;1.84;100.00;98817.59;5052439;28;20025;-72
2021/11/13 00:56:21;;;;;;;4.88;3.75;;;;;;;1.73;100.00;98810.59;5052381;28;20029;-72
2021/11/13 00:58:47;;;;;;;4.10;3.80;;;;;;;1.69;100.00;98813.97;5051533;28;20021;-72
2021/11/13 08:01:07;;;;;;;1.88;1.80;;;;;;;2.21;100.00;98762.84;5702293;22;20109;-71
2021/11/13 08:03:32;;;;;;;3.83;2.88;;;;;;;2.33;100.00;98772.41;4994268;28;20038;-71
2021/11/13 08:05:58;;;;;;;1.40;1.40;;;;;;;2.24;100.00;98773.97;4994214;28;20480;-71
2021/11/13 08:08:23;;;;;;;7.40;4.40;;;;;;;2.26;100.00;98772.28;4994093;28;20029;-71
2021/11/13 08:10:49;;;;;;;2.58;2.38;;;;;;;2.19;100.00;98769.63;4993943;28;20029;-71
2021/11/13 08:13:16;;;;;;;2.95;2.70;;;;;;;2.41;100.00;98775.91;4994501;28;20395;-71
2021/11/13 08:15:42;;;;;;;2.38;2.20;;;;;;;2.29;100.00;98777.47;4993908;28;20026;-72
2021/11/13 08:18:10;;;;;;;2.90;2.70;;;;;;;2.29;100.00;98777.47;4993880;28;20506;-71
2021/11/13 08:20:36;;;;;;;3.58;3.00;;;;;;;2.36;100.00;98768.16;4993768;28;20031;-71
2021/11/13 08:23:04;;;;;;;3.28;2.95;;;;;;;2.29;100.00;98774.91;4993831;28;20120;-71
2021/11/13 08:25:30;;;;;;;2.38;2.15;;;;;;;2.34;100.00;98776.66;4993799;28;20034;-71
2021/11/13 08:27:55;;;;;;;2.13;1.92;;;;;;;2.56;100.00;98782.13;4993374;28;20018;-71
2021/11/13 08:30:22;;;;;;;2.28;2.10;;;;;;;2.62;100.00;98770.25;4986125;28;20586;-71
2021/11/13 08:32:48;;;;;;;2.20;2.03;;;;;;;2.75;99.62;98761.88;4993763;28;20054;-71
2021/11/13 08:35:17;;;;;;;3.78;2.90;;;;;;;2.90;98.15;98766.31;4993491;28;20428;-71
2021/11/13 08:37:42;;;;;;;2.65;2.55;;;;;;;3.12;97.96;98773.44;4993369;28;20475;-71
2021/11/13 08:40:09;;;;;;;4.88;3.10;;;;;;;3.06;97.77;98770.81;4993176;28;20034;-71
2021/11/13 08:42:36;;;;;;;3.97;3.60;;;;;;;3.28;95.94;98770.19;4992716;28;20023;-71
2021/11/13 08:45:03;;;;;;;2.30;2.20;;;;;;;3.29;95.42;98769.38;4993461;28;20068;-70
2021/11/13 08:47:28;;;;;;;2.13;2.03;;;;;;;3.79;94.22;98766.44;4993367;28;20463;-74
2021/11/13 08:49:56;;;;;;;2.20;2.00;;;;;;;3.81;93.85;98767.28;4993302;28;20029;-70
2021/11/13 08:52:22;;;;;;;3.58;3.28;;;;;;;4.19;92.69;98779.56;4993419;28;20229;-70
2021/11/13 08:54:48;;;;;;;3.33;3.08;;;;;;;4.24;90.65;98775.31;4993303;28;20038;-70
2021/11/13 08:57:14;;;;;;;2.30;2.20;;;;;;;4.29;91.28;98770.22;4992703;28;20019;-69
2021/11/13 08:59:39;;;;;;;2.22;2.13;;;;;;;4.46;89.99;98778.06;4985650;28;20496;-71
2021/11/13 09:02:11;;;;;;;1.50;1.40;;;;;;;4.26;90.42;98773.66;4992852;28;20070;-70
2021/11/13 09:04:38;;;;;;;2.42;2.22;;;;;;;4.51;90.76;98781.50;4993293;28;20513;-69
2021/11/13 09:07:06;;;;;;;2.15;2.05;;;;;;;4.58;89.74;98783.25;4993196;28;20033;-69
2021/11/13 09:09:35;;;;;;;2.55;1.80;;;;;;;4.75;89.42;98776.50;4992731;28;20450;-70
2021/11/13 09:12:03;;;;;;;2.50;2.30;;;;;;;4.44;90.21;98784.88;4992690;28;20463;-70
2021/11/13 09:14:31;;;;;;;3.50;2.88;;;;;;;4.59;89.53;98779.81;4992953;28;20490;-70
2021/11/13 09:16:57;;;;;;;2.88;2.67;;;;;;;4.80;88.82;98789.38;4992849;28;20018;-70
2021/11/13 09:19:22;;;;;;;3.95;3.08;;;;;;;4.84;89.71;98781.69;4992779;28;20033;-71
2021/11/13 09:21:48;;;;;;;3.28;3.08;;;;;;;4.86;89.92;98782.53;4992827;28;20033;-71
2021/11/13 09:24:13;;;;;;;3.20;2.90;;;;;;;4.30;92.26;98783.09;4992782;28;20077;-72
2021/11/13 09:26:39;;;;;;;3.75;3.45;;;;;;;4.24;94.69;98780.47;4992647;28;20102;-71
2021/11/13 09:29:05;;;;;;;2.20;2.03;;;;;;;4.01;97.46;98764.91;4989556;28;20376;-71
2021/11/13 09:31:31;;;;;;;1.85;1.75;;;;;;;3.83;98.58;98765.63;4988509;28;20030;-71
2021/11/13 09:33:56;;;;;;;1.75;1.65;;;;;;;3.80;99.39;98757.88;4992344;28;20030;-71
2021/11/13 09:36:23;;;;;;;6.70;2.83;;;;;;;3.85;99.09;98758.78;4992495;28;20530;-71
2021/11/13 09:38:49;;;;;;;2.53;2.10;;;;;;;3.83;98.59;98745.13;4992431;28;20034;-71
2021/11/13 09:41:19;;;;;;;3.05;2.83;;;;;;;3.93;98.76;98746.06;4992373;28;20073;-71
2021/11/13 09:43:44;;;;;;;3.17;2.97;;;;;;;4.13;99.05;98753.88;4992691;28;20380;-71
2021/11/13 09:46:11;;;;;;;2.30;2.10;;;;;;;4.22;97.31;98753.97;4991323;28;20026;-71
2021/11/13 09:48:37;;;;;;;2.40;2.22;;;;;;;4.12;96.95;98753.03;4992382;28;20403;-71
2021/11/13 09:51:04;;;;;;;4.93;2.78;;;;;;;4.24;96.74;98757.38;4992294;28;20026;-71
2021/11/13 09:53:30;;;;;;;2.20;2.03;;;;;;;4.44;96.52;98748.94;4995184;28;20030;-71
2021/11/13 09:55:57;;;;;;;2.88;2.67;;;;;;;4.72;94.97;98749.97;4996455;28;20034;-71
2021/11/13 09:58:24;;;;;;;3.13;2.83;;;;;;;4.81;94.78;98756.00;4996078;28;20066;-71
2021/11/13 10:00:50;;;;;;;1.92;1.80;;;;;;;4.74;94.09;98754.28;4988754;28;20026;-71
2021/11/13 10:03:18;;;;;;;2.92;2.72;;;;;;;4.97;93.62;98750.94;4996390;28;20387;-71
2021/11/13 10:05:46;;;;;;;2.78;2.53;;;;;;;5.31;91.99;98742.47;4996294;28;20022;-71
2021/11/13 10:08:11;;;;;;;3.40;2.17;;;;;;;5.73;89.88;98743.41;4996286;28;20019;-71
2021/11/13 10:10:40;;;;;;;2.53;1.92;;;;;;;6.24;87.05;98736.56;4996154;28;20064;-71
2021/11/13 10:13:26;;;;;;;2.95;2.75;;;;;;;7.56;79.50;98736.91;4996258;28;20073;-71
2021/11/13 10:15:53;;;;;;;2.65;2.42;;;;;;;7.39;80.53;98726.69;4995132;28;20026;-71
2021/11/13 10:18:22;;;;;;;3.63;3.33;;;;;;;7.64;80.47;98722.25;4996102;28;20116;-71
2021/11/13 10:20:51;;;;;;;25.07;3.47;;;;;;;7.43;79.76;98723.22;4996032;28;20022;-71
2021/11/13 10:23:33;;;;;;;2.17;1.98;;;;;;;7.95;78.29;98717.69;4996494;28;20045;-71
2021/11/13 10:26:09;;;;;;;5.90;2.88;;;;;;;8.38;74.62;98717.31;4996026;28;20057;-71
2021/11/13 10:28:50;;;;;;;2.95;2.47;;;;;;;8.43;77.30;98719.84;4995596;28;20279;-71
2021/11/13 10:31:30;;;;;;;5.53;3.08;;;;;;;8.84;76.50;98721.97;4983699;28;20026;-72
2021/11/13 10:33:58;;;;;;;2.85;2.55;;;;;;;7.88;80.41;98716.03;4995924;28;20027;-71
2021/11/13 10:36:27;;;;;;;4.93;2.60;;;;;;;6.82;84.55;98722.69;4995759;28;20034;-71
2021/11/13 10:39:06;;;;;;;5.00;3.27;;;;;;;6.01;90.11;98720.31;4995753;28;20033;-71
2021/11/13 10:41:49;;;;;;;5.93;2.95;;;;;;;5.68;92.46;98729.69;4995718;28;20058;-71
2021/11/13 10:44:21;;;;;;;3.00;2.63;;;;;;;5.41;94.85;98726.25;4995722;28;20065;-71
2021/11/13 10:46:47;;;;;;;2.22;2.13;;;;;;;5.26;96.55;98723.63;4995541;28;20029;-71
2021/11/13 10:49:13;;;;;;;3.83;3.50;;;;;;;5.21;97.15;98725.31;4995466;28;20030;-71
2021/11/13 10:51:38;;;;;;;3.65;3.30;;;;;;;5.17;98.67;98721.03;4995300;28;20061;-71
2021/11/13 10:54:13;;;;;;;7.88;3.70;;;;;;;5.23;98.61;98713.38;4995412;28;20434;-71
2021/11/13 10:56:53;;;;;;;2.10;1.77;;;;;;;5.21;97.73;98709.06;4995037;28;20476;-71
2021/11/13 10:59:44;;;;;;;4.25;3.58;;;;;;;5.31;96.48;98714.22;4990204;28;20427;-71
2021/11/13 11:02:12;;;;;;;3.63;2.78;;;;;;;5.45;96.89;98708.25;4981232;28;20498;-71
2021/11/13 11:04:40;;;;;;;4.32;3.72;;;;;;;5.25;95.83;98711.63;4994645;28;20487;-71
2021/11/13 11:07:20;;;;;;;2.20;2.10;;;;;;;5.29;96.92;98713.38;4995321;28;20022;-71
2021/11/13 11:10:09;;;;;;;3.70;2.08;;;;;;;5.41;96.96;98705.69;4995078;28;20018;-70
2021/11/13 11:12:37;;;;;;;8.40;2.72;;;;;;;5.44;97.00;98701.41;4995085;28;20073;-70
2021/11/13 11:15:15;;;;;;;2.75;2.58;;;;;;;5.38;96.56;98703.09;4995112;28;20057;-70
2021/11/13 11:17:45;;;;;;;6.28;2.47;;;;;;;5.34;96.78;98703.09;4995059;28;20026;-70
2021/11/13 11:20:14;;;;;;;2.65;2.45;;;;;;;5.31;96.82;98703.94;4994788;28;20514;-71
2021/11/13 11:22:40;;;;;;;2.50;2.40;;;;;;;5.35;97.14;98699.66;4994863;28;20034;-70
2021/11/13 11:25:08;;;;;;;4.10;3.70;;;;;;;5.40;97.35;98695.41;4994833;28;20117;-71
2021/11/13 11:27:39;;;;;;;3.40;2.90;;;;;;;5.50;97.34;98698.81;4994466;28;20030;-71
2021/11/13 11:30:06;;;;;;;2.03;1.88;;;;;;;5.52;97.26;98692.00;4972654;28;20030;-71
2021/11/13 11:32:36;;;;;;;4.88;2.95;;;;;;;5.61;98.05;98681.72;4994356;28;20038;-71
2021/11/13 11:35:19;;;;;;;8.05;3.40;;;;;;;5.59;97.81;98683.41;4994761;28;20154;-72
2021/11/13 11:37:47;;;;;;;3.80;3.35;;;;;;;5.53;98.29;98680.84;4994464;28;20500;-71
2021/11/13 11:40:18;;;;;;;2.13;2.00;;;;;;;5.54;98.70;98680.00;4994421;28;20034;-71
2021/11/13 11:42:44;;;;;;;5.38;2.55;;;;;;;5.54;98.10;98672.28;4994972;28;20042;-71
2021/11/13 11:45:13;;;;;;;3.15;2.83;;;;;;;5.55;97.87;98676.56;4992749;28;20031;-71
2021/11/13 11:47:42;;;;;;;2.50;2.33;;;;;;;5.57;98.59;98668.00;4994370;28;20050;-71
2021/11/13 11:50:15;;;;;;;3.72;3.42;;;;;;;5.56;98.67;98676.59;4993934;28;20041;-71
2021/11/13 11:52:43;;;;;;;6.20;3.60;;;;;;;5.67;98.50;98668.88;4994586;28;20097;-71
2021/11/13 11:55:11;;;;;;;4.22;3.83;;;;;;;5.75;98.20;98668.84;4994372;28;20030;-71
2021/11/13 11:57:43;;;;;;;2.08;1.98;;;;;;;5.89;98.20;98669.69;4993926;28;20018;-71
2021/11/13 12:00:11;;;;;;;3.53;2.80;;;;;;;6.07;98.03;98663.72;4986737;28;20113;-71
2021/11/13 12:02:41;;;;;;;7.05;3.92;;;;;;;6.07;96.76;98669.72;4994018;28;20030;-71
2021/11/13 12:05:10;;;;;;;2.90;2.70;;;;;;;6.21;96.67;98661.97;4994155;28;20034;-71
2021/11/13 12:07:36;;;;;;;7.70;3.03;;;;;;;6.25;96.67;98657.69;4994098;28;20101;-71
2021/11/13 12:10:07;;;;;;;3.55;3.25;;;;;;;6.27;95.90;98664.50;4993942;28;20114;-71
2021/11/13 12:12:32;;;;;;;4.40;3.17;;;;;;;6.35;96.58;98662.78;4994005;28;20026;-71
2021/11/13 12:15:18;;;;;;;3.05;2.63;;;;;;;6.36;95.98;98655.91;4993851;28;20030;-71
2021/11/13 12:17:49;;;;;;;4.15;2.97;;;;;;;6.33;95.93;98656.78;4993261;28;20026;-71
2021/11/13 12:20:22;;;;;;;2.22;2.10;;;;;;;6.34;95.47;98649.94;4993683;28;20116;-71
2021/11/13 12:23:03;;;;;;;4.38;4.00;;;;;;;6.35;95.85;98654.22;4993840;28;20113;-71
2021/11/13 12:25:31;;;;;;;5.75;3.97;;;;;;;6.20;95.59;98660.25;4993607;28;20042;-71
2021/11/13 12:28:21;;;;;;;3.60;2.58;;;;;;;6.17;95.90;98655.09;4993414;28;20019;-71
2021/11/13 12:30:52;;;;;;;2.80;2.60;;;;;;;6.20;96.27;98660.25;4986361;28;20185;-71
2021/11/13 12:33:26;;;;;;;5.47;4.00;;;;;;;6.18;97.21;98656.81;4993728;28;20034;-71
2021/11/13 12:35:54;;;;;;;3.63;2.88;;;;;;;6.21;97.50;98654.25;4993422;28;20057;-72
2021/11/13 12:38:34;;;;;;;4.43;3.63;;;;;;;6.21;97.41;98654.25;4993740;28;20379;-72
2021/11/13 12:41:17;;;;;;;14.90;4.03;;;;;;;6.16;98.06;98653.41;4993363;28;20454;-71
2021/11/13 12:43:55;;;;;;;4.18;3.28;;;;;;;6.14;98.39;98648.28;4993483;28;20514;-71
2021/11/13 12:46:32;;;;;;;3.45;2.95;;;;;;;6.15;98.34;98647.41;4993300;28;20560;-71
2021/11/13 12:49:15;;;;;;;4.93;2.95;;;;;;;6.17;98.53;98652.53;4993403;28;20438;-72
2021/11/13 12:51:58;;;;;;;3.78;3.45;;;;;;;6.17;98.87;98649.97;4993179;28;20081;-71
2021/11/13 12:54:37;;;;;;;5.28;2.83;;;;;;;6.20;98.92;98647.41;4993343;28;20030;-72
2021/11/13 12:57:09;;;;;;;4.93;4.40;;;;;;;6.17;99.40;98649.97;4992768;28;20025;-72
2021/11/13 12:59:58;;;;;;;4.57;3.75;;;;;;;6.23;99.32;98646.50;4985864;28;20455;-71
2021/11/13 13:02:25;;;;;;;5.40;3.90;;;;;;;6.24;99.70;98649.09;4983157;28;20041;-71
2021/11/13 13:04:50;;;;;;;6.28;4.00;;;;;;;6.34;100.00;98642.22;4993067;28;20053;-71
2021/11/13 13:07:18;;;;;;;3.33;3.10;;;;;;;6.36;100.00;98646.47;4993139;28;20112;-71
2021/11/13 13:10:07;;;;;;;5.93;2.90;;;;;;;6.38;100.00;98638.75;4993090;28;20391;-71
2021/11/13 13:12:36;;;;;;;5.88;3.63;;;;;;;6.40;100.00;98637.91;4993024;28;20504;-71
2021/11/13 13:15:09;;;;;;;6.57;4.10;;;;;;;6.32;100.00;98634.47;4992974;28;20037;-71
2021/11/13 13:17:38;;;;;;;9.25;5.68;;;;;;;6.37;100.00;98640.47;4992687;28;20522;-71
2021/11/13 13:20:06;;;;;;;4.67;3.73;;;;;;;6.38;100.00;98634.47;4992666;28;20037;-72
2021/11/13 13:22:32;;;;;;;4.30;3.17;;;;;;;6.47;100.00;98627.56;4992647;28;20496;-71
2021/11/13 13:25:03;;;;;;;6.00;4.22;;;;;;;6.55;100.00;98620.69;4993166;28;20029;-71
2021/11/13 13:27:28;;;;;;;8.05;2.90;;;;;;;6.63;100.00;98613.78;4992022;28;20550;-72
2021/11/13 13:30:00;;;;;;;3.88;3.28;;;;;;;6.72;100.00;98618.91;4985187;28;20063;-71
2021/11/13 13:32:27;;;;;;;4.45;3.95;;;;;;;6.66;100.00;98618.91;4992509;28;20025;-71
2021/11/13 13:35:02;;;;;;;4.07;3.67;;;;;;;6.52;100.00;98620.69;4992692;28;20026;-71
2021/11/13 13:37:50;;;;;;;4.63;4.03;;;;;;;6.47;100.00;98612.13;4992572;28;20038;-72
2021/11/13 13:40:36;;;;;;;5.15;3.63;;;;;;;6.35;100.00;98619.03;4991610;28;20137;-72
2021/11/13 13:43:22;;;;;;;6.95;3.53;;;;;;;6.30;100.00;98620.78;4992187;28;20121;-71
2021/11/13 13:45:50;;;;;;;4.22;3.67;;;;;;;6.32;100.00;98618.19;4992611;28;20030;-71
2021/11/13 13:48:23;;;;;;;6.15;4.80;;;;;;;6.32;100.00;98624.19;4992487;28;20105;-72
2021/11/13 13:50:51;;;;;;;3.95;3.58;;;;;;;6.22;100.00;98617.38;4992214;28;20022;-71
2021/11/13 13:53:17;;;;;;;4.32;3.40;;;;;;;6.11;100.00;98613.97;4992700;28;20026;-71
2021/11/13 13:55:43;;;;;;;7.97;3.17;;;;;;;6.11;100.00;98611.41;4992558;28;20030;-71
2021/11/13 13:58:10;;;;;;;6.32;5.45;;;;;;;6.09;100.00;98608.84;4991977;28;20014;-71
2021/11/13 14:00:37;;;;;;;5.78;5.18;;;;;;;6.12;100.00;98616.53;4984934;28;20396;-72
2021/11/13 14:03:04;;;;;;;9.45;4.38;;;;;;;6.12;100.00;98620.81;4992289;28;20026;-71
2021/11/13 14:05:32;;;;;;;2.78;2.58;;;;;;;6.10;100.00;98617.41;4992306;28;20105;-72
2021/11/13 14:08:06;;;;;;;7.30;5.82;;;;;;;6.13;100.00;98617.38;4992265;28;20037;-74
2021/11/13 14:10:42;;;;;;;7.72;3.58;;;;;;;6.12;100.00;98620.81;4992068;28;20545;-73
2021/11/13 14:13:07;;;;;;;4.60;4.20;;;;;;;6.12;100.00;98620.81;4992859;28;20026;-78
2021/11/13 14:15:35;;;;;;;3.40;2.65;;;;;;;6.11;100.00;98613.97;4992296;28;20033;-77
2021/11/13 14:18:04;;;;;;;4.25;2.40;;;;;;;6.12;100.00;98621.69;4992159;28;20494;-77
2021/11/13 14:20:33;;;;;;;4.30;3.90;;;;;;;6.10;100.00;98628.56;4991999;28;20038;-77
2021/11/13 14:23:02;;;;;;;4.57;3.53;;;;;;;6.10;100.00;98625.13;4992412;28;20036;-75
2021/11/13 14:25:30;;;;;;;4.60;3.05;;;;;;;6.10;100.00;98622.56;4992211;28;20018;-78
2021/11/13 14:27:57;;;;;;;4.07;3.78;;;;;;;6.12;100.00;98615.69;4991886;28;20039;-78
2021/11/13 14:30:22;;;;;;;3.70;3.20;;;;;;;6.10;100.00;98617.41;4984461;28;20033;-77
2021/11/13 14:32:57;;;;;;;6.05;3.88;;;;;;;6.17;100.00;98613.94;4992248;28;20022;-77
2021/11/13 14:35:24;;;;;;;5.93;3.92;;;;;;;6.22;100.00;98617.38;4991995;28;20539;-77
2021/11/13 14:37:52;;;;;;;4.10;3.70;;;;;;;6.25;100.00;98619.94;4992203;28;20037;-77
2021/11/13 14:40:19;;;;;;;4.68;4.22;;;;;;;6.34;100.00;98621.63;4993985;28;20101;-77
2021/11/13 14:42:45;;;;;;;5.40;3.95;;;;;;;6.32;100.00;98619.03;4995713;28;20033;-77
2021/11/13 14:45:13;;;;;;;3.92;3.58;;;;;;;6.34;100.00;98616.50;4995542;28;20093;-77
2021/11/13 14:47:41;;;;;;;7.47;4.20;;;;;;;6.32;100.00;98620.75;4995542;28;20480;-78
2021/11/13 14:50:15;;;;;;;8.82;4.32;;;;;;;6.28;100.00;98619.91;4995384;28;20033;-76
2021/11/13 14:52:50;;;;;;;5.43;4.53;;;;;;;6.36;100.00;98620.75;4995649;28;20018;-69
2021/11/13 14:55:36;;;;;;;7.07;3.85;;;;;;;6.37;100.00;98622.44;4995394;28;20026;-70
2021/11/13 14:58:03;;;;;;;11.07;5.90;;;;;;;6.48;100.00;98613.84;4987071;28;20287;-72
2021/11/13 15:00:42;;;;;;;3.75;3.45;;;;;;;6.54;100.00;98624.13;4987628;28;20030;-73
2021/11/13 15:03:19;;;;;;;4.07;3.63;;;;;;;6.57;100.00;98626.66;4981175;28;20031;-73
2021/11/13 15:05:51;;;;;;;5.57;4.43;;;;;;;6.62;100.00;98627.50;4995199;28;20034;-73
2021/11/13 15:08:21;;;;;;;8.90;4.82;;;;;;;6.47;100.00;98636.13;4989756;28;20026;-74
2021/11/13 15:10:47;;;;;;;5.03;4.10;;;;;;;6.42;100.00;98631.00;4994746;28;20022;-74
2021/11/13 15:13:18;;;;;;;4.03;3.55;;;;;;;6.42;100.00;98636.16;4995138;28;20035;-74
2021/11/13 15:15:45;;;;;;;4.88;3.95;;;;;;;6.43;100.00;98632.75;4990641;28;20056;-74
2021/11/13 15:18:11;;;;;;;6.22;4.15;;;;;;;6.55;100.00;98641.28;4994844;28;20030;-73
2021/11/13 15:20:37;;;;;;;7.65;4.25;;;;;;;6.52;100.00;98630.97;4994841;28;20030;-73
2021/11/13 15:23:02;;;;;;;4.82;2.70;;;;;;;6.48;100.00;98635.31;4994989;28;20487;-74
2021/11/13 15:25:39;;;;;;;5.30;3.58;;;;;;;6.47;100.00;98628.41;4994917;28;20030;-74
2021/11/13 15:28:12;;;;;;;12.93;3.92;;;;;;;6.54;100.00;98637.84;4991427;28;21133;-73
2021/11/13 15:30:47;;;;;;;5.30;4.80;;;;;;;6.52;100.00;98641.28;4984226;28;20105;-73
2021/11/13 15:33:15;;;;;;;4.18;3.78;;;;;;;6.51;100.00;98637.84;4993313;28;20040;-73
2021/11/13 15:35:45;;;;;;;3.50;3.20;;;;;;;6.51;100.00;98635.28;4995201;28;20403;-73
2021/11/13 15:38:23;;;;;;;8.68;4.32;;;;;;;6.48;100.00;98637.00;4994576;28;20054;-73
2021/11/13 15:40:49;;;;;;;6.85;4.43;;;;;;;6.47;100.00;98627.56;4994492;28;20107;-74
2021/11/13 15:43:17;;;;;;;8.52;4.78;;;;;;;6.54;100.00;98639.56;4994491;28;20422;-73
2021/11/13 15:45:55;;;;;;;8.63;5.93;;;;;;;6.51;100.00;98634.41;4994864;28;20442;-74
2021/11/13 15:48:23;;;;;;;8.38;5.35;;;;;;;6.54;100.00;98634.41;4994357;28;20105;-74
2021/11/13 15:51:14;;;;;;;5.13;4.07;;;;;;;6.57;100.00;98626.66;4994474;28;20440;-73
2021/11/13 15:53:52;;;;;;;5.80;4.07;;;;;;;6.62;100.00;98627.50;4993180;28;20403;-74
2021/11/13 15:56:20;;;;;;;4.13;3.40;;;;;;;6.59;100.00;98637.81;4994341;28;20022;-74
2021/11/13 15:58:48;;;;;;;4.03;3.63;;;;;;;6.60;100.00;98629.22;4987105;28;20490;-73
2021/11/13 16:01:16;;;;;;;3.75;3.15;;;;;;;6.60;100.00;98634.38;4987586;28;20034;-74
2021/11/13 16:03:42;;;;;;;6.57;4.15;;;;;;;6.60;100.00;98630.09;4994150;28;20439;-77
2021/11/13 16:06:08;;;;;;;4.28;3.92;;;;;;;6.60;100.00;98629.22;4994056;28;20018;-76
2021/11/13 16:08:34;;;;;;;5.00;4.40;;;;;;;6.62;100.00;98627.50;4992519;28;20467;-76
2021/11/13 16:11:01;;;;;;;3.92;3.63;;;;;;;6.68;100.00;98627.50;4993918;28;20030;-76
2021/11/13 16:13:27;;;;;;;6.78;5.10;;;;;;;6.66;100.00;98629.19;4986980;28;20035;-77
2021/11/13 16:15:53;;;;;;;4.63;3.50;;;;;;;6.65;100.00;98641.22;4984918;28;20029;-77
2021/11/13 16:18:19;;;;;;;2.45;2.28;;;;;;;6.69;100.00;98636.91;4985688;28;20026;-77
2021/11/13 16:20:45;;;;;;;4.65;3.92;;;;;;;6.72;100.00;98638.59;4976025;28;20033;-76
2021/11/13 16:23:12;;;;;;;8.00;3.88;;;;;;;6.73;100.00;98641.19;4974353;28;20039;-73
2021/11/13 16:25:38;;;;;;;3.45;3.15;;;;;;;6.78;100.00;98634.31;4974304;28;20018;-74
2021/11/13 16:28:05;;;;;;;3.45;2.90;;;;;;;6.78;100.00;98639.44;4974450;28;20487;-76
2021/11/13 16:30:31;;;;;;;7.22;4.82;;;;;;;6.78;100.00;98636.88;4982147;28;20022;-74
2021/11/13 16:32:56;;;;;;;3.15;2.85;;;;;;;6.77;100.00;98642.91;4993580;28;20400;-71
2021/11/13 16:35:21;;;;;;;2.53;2.33;;;;;;;6.80;100.00;98640.28;4993517;28;20062;-74
2021/11/13 16:38:11;;;;;;;3.90;2.67;;;;;;;6.78;100.00;98649.75;4993531;28;20077;-73
2021/11/13 16:40:40;;;;;;;5.78;3.38;;;;;;;6.80;100.00;98648.00;4993362;28;20050;-70
2021/11/13 16:43:06;;;;;;;4.53;3.25;;;;;;;6.82;100.00;98643.72;4992539;28;20030;-72
2021/11/13 16:45:36;;;;;;;4.38;2.88;;;;;;;6.84;100.00;98657.44;4993044;28;20034;-71
2021/11/13 16:48:02;;;;;;;;;;;;;;;6.81;100.00;98654.88;4993601;28;20029;-72
2021/11/13 16:50:28;;;;;;;3.28;3.08;;;;;;;6.81;100.00;98664.31;4993061;28;19913;-71
2021/11/13 16:52:55;;;;;;;2.70;2.45;;;;;;;6.77;100.00;98660.91;4993270;28;20041;-71
2021/11/13 16:55:20;;;;;;;2.80;2.55;;;;;;;6.81;100.00;98656.59;4993236;28;20458;-72
2021/11/13 16:57:46;;;;;;;4.70;3.75;;;;;;;6.81;100.00;98664.31;4993172;28;20113;-72
2021/11/13 17:00:14;;;;;;;10.73;4.47;;;;;;;6.80;100.00;98660.88;4979026;28;20025;-72
2021/11/13 17:02:39;;;;;;;8.00;4.60;;;;;;;6.77;100.00;98660.91;4992305;28;20054;-71
2021/11/13 17:05:05;;;;;;;4.35;3.83;;;;;;;6.77;100.00;98668.66;4993183;28;20480;-72
2021/11/13 17:07:32;;;;;;;3.75;3.40;;;;;;;6.79;100.00;98661.75;4992852;28;20026;-71
2021/11/13 17:09:57;;;;;;;5.93;4.53;;;;;;;6.79;100.00;98666.91;4992844;28;20072;-71
2021/11/13 17:12:23;;;;;;;4.65;3.38;;;;;;;6.82;100.00;98681.50;4992777;28;20466;-71
2021/11/13 17:14:50;;;;;;;2.05;1.95;;;;;;;6.86;100.00;98673.72;4992898;28;20018;-73
2021/11/13 17:17:15;;;;;;;3.40;3.13;;;;;;;6.85;100.00;98677.16;4993126;28;20030;-72
2021/11/13 17:19:40;;;;;;;6.30;4.80;;;;;;;6.83;100.00;98689.22;4992651;28;20664;-72
2021/11/13 17:22:06;;;;;;;4.93;2.83;;;;;;;6.82;100.00;98687.50;4992701;28;20042;-72
2021/11/13 17:24:32;;;;;;;4.75;3.13;;;;;;;6.82;100.00;98687.50;4992760;28;20034;-72
2021/11/13 17:26:59;;;;;;;4.07;3.67;;;;;;;6.82;100.00;98690.09;4992673;28;20022;-72
2021/11/13 17:29:25;;;;;;;3.78;3.22;;;;;;;6.81;100.00;98690.91;4980286;28;20104;-73
2021/11/13 17:31:50;;;;;;;3.53;3.22;;;;;;;6.81;100.00;98690.91;4991011;28;20053;-72
2021/11/13 17:34:16;;;;;;;8.95;4.80;;;;;;;6.81;100.00;98680.63;4992848;28;20026;-72
2021/11/13 17:36:42;;;;;;;2.70;2.55;;;;;;;6.78;100.00;98687.53;4992666;28;20034;-72
2021/11/13 17:39:08;;;;;;;7.70;3.53;;;;;;;6.77;100.00;98684.09;4992365;28;20102;-72
2021/11/13 17:41:34;;;;;;;4.40;3.22;;;;;;;6.74;100.00;98691.81;4992491;28;20498;-72
2021/11/13 17:43:59;;;;;;;6.22;4.13;;;;;;;6.71;100.00;98689.25;4992428;28;20034;-72
2021/11/13 17:46:25;;;;;;;5.15;3.47;;;;;;;6.72;100.00;98690.97;4992475;28;20097;-72
2021/11/13 17:48:50;;;;;;;5.85;5.22;;;;;;;6.70;100.00;98687.53;4992436;28;20030;-72
2021/11/13 17:51:17;;;;;;;4.43;3.13;;;;;;;6.70;100.00;98697.84;4992292;28;20117;-72
2021/11/13 17:53:42;;;;;;;14.48;5.20;;;;;;;6.73;100.00;98697.84;4992625;28;20042;-72
2021/11/13 17:56:08;;;;;;;5.00;3.53;;;;;;;6.72;100.00;98690.09;4992441;28;20026;-72
2021/11/13 17:58:33;;;;;;;4.25;3.13;;;;;;;6.87;100.00;98697.78;4986053;28;20026;-72
2021/11/13 18:01:03;;;;;;;5.10;3.83;;;;;;;6.86;100.00;98691.75;4984368;28;20372;-72
2021/11/13 18:03:30;;;;;;;5.30;3.60;;;;;;;6.87;100.00;98695.22;4992244;28;20490;-72
2021/11/13 18:05:56;;;;;;;5.13;4.40;;;;;;;6.81;100.00;98690.91;4992352;28;20031;-72
2021/11/13 18:08:24;;;;;;;4.57;3.65;;;;;;;6.78;100.00;98690.94;4992265;28;20022;-73
2021/11/13 18:10:52;;;;;;;3.88;3.55;;;;;;;6.78;100.00;98696.09;4992113;28;20037;-73
2021/11/13 18:13:17;;;;;;;6.70;3.17;;;;;;;6.79;100.00;98692.66;4992673;28;20022;-73
2021/11/13 18:15:43;;;;;;;5.13;3.92;;;;;;;6.77;100.00;98696.97;4994889;28;20549;-73
2021/11/13 18:18:09;;;;;;;3.45;2.97;;;;;;;6.78;100.00;98690.94;4996081;28;20034;-73
2021/11/13 18:20:34;;;;;;;3.33;2.95;;;;;;;6.75;100.00;98693.53;4995756;28;20388;-72
2021/11/13 18:23:01;;;;;;;6.85;4.82;;;;;;;6.77;100.00;98694.41;4996108;28;20030;-73
2021/11/13 18:25:30;;;;;;;6.18;4.40;;;;;;;6.72;100.00;98695.25;4995925;28;20286;-72
2021/11/13 18:28:03;;;;;;;4.95;4.45;;;;;;;6.76;100.00;98691.81;4994724;28;20026;-73
2021/11/13 18:30:29;;;;;;;5.07;4.43;;;;;;;6.74;100.00;98696.97;4983162;28;20091;-73
2021/11/13 18:32:56;;;;;;;9.63;3.65;;;;;;;6.75;100.00;98696.09;4995938;28;20038;-73
2021/11/13 18:35:22;;;;;;;8.80;6.32;;;;;;;6.71;100.00;98694.41;4996260;28;20108;-73
2021/11/13 18:37:47;;;;;;;5.75;5.25;;;;;;;6.69;100.00;98696.13;4994691;28;20050;-73
2021/11/13 18:40:18;;;;;;;5.55;5.03;;;;;;;6.70;100.00;98693.53;4995541;28;20480;-73
2021/11/13 18:42:44;;;;;;;10.32;4.80;;;;;;;6.72;100.00;98702.97;4994516;28;20031;-73
2021/11/13 18:45:11;;;;;;;7.93;4.78;;;;;;;6.74;100.00;98699.53;4992505;28;20053;-73